sensor_id;sensor_type;location;lat;lon;timestamp;P1;durP1;ratioP1;P2;durP2;ratioP2
26337;SDS011;14050;50.950;4.460;2023-06-22T00:03:24;7.90;;;4.20;;
26337;SDS011;14050;50.950;4.460;2023-06-22T00:08:24;7.43;;;4.60;;
26337;SDS011;14050;50.950;4.460;2023-06-22T00:13:25;7.03;;;4.17;;
26337;SDS011;14050;50.950;4.460;2023-06-22T00:18:25;10.45;;;4.63;;
26337;SDS011;14050;50.950;4.460;2023-06-22T00:23:27;11.68;;;4.40;;
26337;SDS011;14050;50.950;4.460;2023-06-22T00:28:28;7.80;;;4.15;;
26337;SDS011;14050;50.950;4.460;2023-06-22T00:33:29;6.88;;;4.60;;
26337;SDS011;14050;50.950;4.460;2023-06-22T00:38:29;8.87;;;4.23;;
26337;SDS011;14050;50.950;4.460;2023-06-22T00:43:29;9.77;;;5.30;;
26337;SDS011;14050;50.950;4.460;2023-06-22T00:48:30;7.05;;;4.90;;
26337;SDS011;14050;50.950;4.460;2023-06-22T00:53:30;7.60;;;5.20;;
26337;SDS011;14050;50.950;4.460;2023-06-22T00:58:35;7.28;;;4.20;;
26337;SDS011;14050;50.950;4.460;2023-06-22T01:03:35;8.48;;;4.50;;
26337;SDS011;14050;50.950;4.460;2023-06-22T01:18:45;7.38;;;4.45;;
26337;SDS011;14050;50.950;4.460;2023-06-22T01:28:49;7.68;;;4.95;;
26337;SDS011;14050;50.950;4.460;2023-06-22T01:33:51;9.13;;;4.93;;
26337;SDS011;14050;50.950;4.460;2023-06-22T01:38:53;7.07;;;4.60;;
26337;SDS011;14050;50.950;4.460;2023-06-22T01:43:53;6.55;;;4.07;;
26337;SDS011;14050;50.950;4.460;2023-06-22T01:48:54;6.97;;;4.65;;
26337;SDS011;14050;50.950;4.460;2023-06-22T01:53:55;7.10;;;4.60;;
26337;SDS011;14050;50.950;4.460;2023-06-22T02:04:08;8.43;;;5.28;;
26337;SDS011;14050;50.950;4.460;2023-06-22T02:09:12;9.50;;;4.57;;
26337;SDS011;14050;50.950;4.460;2023-06-22T02:14:14;9.90;;;4.82;;
26337;SDS011;14050;50.950;4.460;2023-06-22T02:19:15;9.68;;;4.70;;
26337;SDS011;14050;50.950;4.460;2023-06-22T02:24:16;8.05;;;4.28;;
26337;SDS011;14050;50.950;4.460;2023-06-22T02:29:16;9.80;;;4.40;;
26337;SDS011;14050;50.950;4.460;2023-06-22T02:34:17;8.80;;;4.80;;
26337;SDS011;14050;50.950;4.460;2023-06-22T02:39:22;9.23;;;5.43;;
26337;SDS011;14050;50.950;4.460;2023-06-22T02:44:22;8.27;;;5.40;;
26337;SDS011;14050;50.950;4.460;2023-06-22T02:49:23;8.57;;;5.17;;
26337;SDS011;14050;50.950;4.460;2023-06-22T02:54:23;5.23;;;4.73;;
26337;SDS011;14050;50.950;4.460;2023-06-22T02:59:23;11.88;;;5.82;;
26337;SDS011;14050;50.950;4.460;2023-06-22T03:04:24;10.85;;;5.50;;
26337;SDS011;14050;50.950;4.460;2023-06-22T03:09:24;9.57;;;5.35;;
26337;SDS011;14050;50.950;4.460;2023-06-22T03:14:24;10.63;;;5.32;;
26337;SDS011;14050;50.950;4.460;2023-06-22T03:19:25;7.40;;;5.73;;
26337;SDS011;14050;50.950;4.460;2023-06-22T03:24:25;10.30;;;5.63;;
26337;SDS011;14050;50.950;4.460;2023-06-22T03:29:25;12.70;;;6.28;;
26337;SDS011;14050;50.950;4.460;2023-06-22T03:34:25;8.07;;;6.05;;
26337;SDS011;14050;50.950;4.460;2023-06-22T03:39:26;11.02;;;6.28;;
26337;SDS011;14050;50.950;4.460;2023-06-22T03:44:26;10.30;;;6.65;;
26337;SDS011;14050;50.950;4.460;2023-06-22T03:49:26;10.48;;;6.55;;
26337;SDS011;14050;50.950;4.460;2023-06-22T03:54:27;13.57;;;6.88;;
26337;SDS011;14050;50.950;4.460;2023-06-22T03:59:27;9.88;;;7.18;;
26337;SDS011;14050;50.950;4.460;2023-06-22T04:04:28;10.77;;;7.30;;
26337;SDS011;14050;50.950;4.460;2023-06-22T04:09:28;10.55;;;7.30;;
26337;SDS011;14050;50.950;4.460;2023-06-22T04:14:28;10.95;;;7.63;;
26337;SDS011;14050;50.950;4.460;2023-06-22T04:19:28;13.18;;;8.27;;
26337;SDS011;14050;50.950;4.460;2023-06-22T04:24:29;11.53;;;8.50;;
26337;SDS011;14050;50.950;4.460;2023-06-22T04:29:29;14.45;;;8.57;;
26337;SDS011;14050;50.950;4.460;2023-06-22T04:34:30;13.98;;;9.65;;
26337;SDS011;14050;50.950;4.460;2023-06-22T04:39:30;15.33;;;9.53;;
26337;SDS011;14050;50.950;4.460;2023-06-22T04:44:31;18.70;;;9.88;;
26337;SDS011;14050;50.950;4.460;2023-06-22T04:49:31;17.45;;;9.68;;
26337;SDS011;14050;50.950;4.460;2023-06-22T04:54:37;15.60;;;10.40;;
26337;SDS011;14050;50.950;4.460;2023-06-22T04:59:38;15.57;;;10.57;;
26337;SDS011;14050;50.950;4.460;2023-06-22T05:04:39;18.75;;;9.23;;
26337;SDS011;14050;50.950;4.460;2023-06-22T05:09:39;18.67;;;9.95;;
26337;SDS011;14050;50.950;4.460;2023-06-22T05:14:39;16.17;;;10.38;;
26337;SDS011;14050;50.950;4.460;2023-06-22T05:19:40;16.67;;;10.10;;
26337;SDS011;14050;50.950;4.460;2023-06-22T05:24:45;14.57;;;10.02;;
26337;SDS011;14050;50.950;4.460;2023-06-22T05:29:45;16.38;;;10.85;;
26337;SDS011;14050;50.950;4.460;2023-06-22T05:34:45;21.83;;;11.25;;
26337;SDS011;14050;50.950;4.460;2023-06-22T05:39:46;19.55;;;11.75;;
26337;SDS011;14050;50.950;4.460;2023-06-22T05:44:46;17.08;;;12.20;;
26337;SDS011;14050;50.950;4.460;2023-06-22T05:49:47;18.50;;;12.70;;
26337;SDS011;14050;50.950;4.460;2023-06-22T05:54:47;20.20;;;12.93;;
26337;SDS011;14050;50.950;4.460;2023-06-22T05:59:47;24.50;;;12.52;;
26337;SDS011;14050;50.950;4.460;2023-06-22T06:04:47;20.35;;;12.90;;
26337;SDS011;14050;50.950;4.460;2023-06-22T06:09:48;16.63;;;12.55;;
26337;SDS011;14050;50.950;4.460;2023-06-22T06:14:48;16.57;;;12.43;;
26337;SDS011;14050;50.950;4.460;2023-06-22T06:19:48;16.45;;;11.63;;
26337;SDS011;14050;50.950;4.460;2023-06-22T06:24:49;16.20;;;12.57;;
26337;SDS011;14050;50.950;4.460;2023-06-22T06:29:49;17.38;;;12.52;;
26337;SDS011;14050;50.950;4.460;2023-06-22T06:34:49;16.73;;;12.55;;
26337;SDS011;14050;50.950;4.460;2023-06-22T06:39:50;20.30;;;13.00;;
26337;SDS011;14050;50.950;4.460;2023-06-22T06:44:50;20.55;;;13.38;;
26337;SDS011;14050;50.950;4.460;2023-06-22T06:49:50;22.08;;;13.70;;
26337;SDS011;14050;50.950;4.460;2023-06-22T06:54:50;20.65;;;13.27;;
26337;SDS011;14050;50.950;4.460;2023-06-22T06:59:52;18.25;;;13.52;;
26337;SDS011;14050;50.950;4.460;2023-06-22T07:04:52;22.10;;;13.18;;
26337;SDS011;14050;50.950;4.460;2023-06-22T07:09:52;18.97;;;13.40;;
26337;SDS011;14050;50.950;4.460;2023-06-22T07:14:52;22.13;;;13.23;;
26337;SDS011;14050;50.950;4.460;2023-06-22T07:19:53;18.67;;;14.03;;
26337;SDS011;14050;50.950;4.460;2023-06-22T07:24:53;19.17;;;14.05;;
26337;SDS011;14050;50.950;4.460;2023-06-22T07:29:53;20.90;;;14.50;;
26337;SDS011;14050;50.950;4.460;2023-06-22T07:34:55;20.60;;;14.25;;
26337;SDS011;14050;50.950;4.460;2023-06-22T07:39:55;21.70;;;14.13;;
26337;SDS011;14050;50.950;4.460;2023-06-22T07:44:58;21.98;;;14.32;;
26337;SDS011;14050;50.950;4.460;2023-06-22T07:49:58;24.83;;;13.67;;
26337;SDS011;14050;50.950;4.460;2023-06-22T07:55:01;20.17;;;14.05;;
26337;SDS011;14050;50.950;4.460;2023-06-22T08:00:03;20.50;;;14.63;;
26337;SDS011;14050;50.950;4.460;2023-06-22T08:05:07;18.13;;;13.57;;
26337;SDS011;14050;50.950;4.460;2023-06-22T08:10:10;20.65;;;14.32;;
26337;SDS011;14050;50.950;4.460;2023-06-22T08:15:10;22.77;;;14.48;;
26337;SDS011;14050;50.950;4.460;2023-06-22T08:20:11;21.67;;;15.07;;
26337;SDS011;14050;50.950;4.460;2023-06-22T08:25:14;20.02;;;14.48;;
26337;SDS011;14050;50.950;4.460;2023-06-22T08:30:14;17.55;;;14.27;;
26337;SDS011;14050;50.950;4.460;2023-06-22T08:35:15;23.08;;;15.00;;
26337;SDS011;14050;50.950;4.460;2023-06-22T08:40:16;19.17;;;14.40;;
26337;SDS011;14050;50.950;4.460;2023-06-22T08:45:16;18.65;;;14.07;;
26337;SDS011;14050;50.950;4.460;2023-06-22T08:50:17;17.15;;;14.00;;
26337;SDS011;14050;50.950;4.460;2023-06-22T08:55:18;16.97;;;13.13;;
26337;SDS011;14050;50.950;4.460;2023-06-22T09:00:18;20.42;;;13.57;;
26337;SDS011;14050;50.950;4.460;2023-06-22T09:05:20;21.10;;;13.65;;
26337;SDS011;14050;50.950;4.460;2023-06-22T09:10:21;18.50;;;12.32;;
26337;SDS011;14050;50.950;4.460;2023-06-22T09:15:22;18.80;;;12.27;;
26337;SDS011;14050;50.950;4.460;2023-06-22T09:20:23;20.20;;;14.27;;
26337;SDS011;14050;50.950;4.460;2023-06-22T09:25:23;20.30;;;14.50;;
26337;SDS011;14050;50.950;4.460;2023-06-22T09:30:23;16.90;;;13.75;;
26337;SDS011;14050;50.950;4.460;2023-06-22T09:35:23;14.77;;;12.40;;
26337;SDS011;14050;50.950;4.460;2023-06-22T09:40:24;16.10;;;11.90;;
26337;SDS011;14050;50.950;4.460;2023-06-22T09:45:24;18.05;;;12.95;;
26337;SDS011;14050;50.950;4.460;2023-06-22T09:50:24;24.50;;;13.40;;
26337;SDS011;14050;50.950;4.460;2023-06-22T09:55:24;20.80;;;13.55;;
26337;SDS011;14050;50.950;4.460;2023-06-22T10:00:25;16.67;;;13.43;;
26337;SDS011;14050;50.950;4.460;2023-06-22T10:05:26;27.65;;;16.35;;
26337;SDS011;14050;50.950;4.460;2023-06-22T10:10:26;26.77;;;17.57;;
26337;SDS011;14050;50.950;4.460;2023-06-22T10:15:27;28.85;;;18.23;;
26337;SDS011;14050;50.950;4.460;2023-06-22T10:20:28;32.05;;;18.45;;
26337;SDS011;14050;50.950;4.460;2023-06-22T10:25:28;26.20;;;15.77;;
26337;SDS011;14050;50.950;4.460;2023-06-22T10:30:28;30.10;;;16.87;;
26337;SDS011;14050;50.950;4.460;2023-06-22T10:35:29;28.55;;;18.80;;
26337;SDS011;14050;50.950;4.460;2023-06-22T10:40:29;25.63;;;17.95;;
26337;SDS011;14050;50.950;4.460;2023-06-22T10:45:29;29.73;;;18.02;;
26337;SDS011;14050;50.950;4.460;2023-06-22T10:50:29;29.48;;;20.65;;
26337;SDS011;14050;50.950;4.460;2023-06-22T10:55:30;29.35;;;19.55;;
26337;SDS011;14050;50.950;4.460;2023-06-22T11:00:30;30.25;;;20.27;;
26337;SDS011;14050;50.950;4.460;2023-06-22T11:05:31;30.08;;;20.95;;
26337;SDS011;14050;50.950;4.460;2023-06-22T11:10:31;29.20;;;21.42;;
26337;SDS011;14050;50.950;4.460;2023-06-22T11:15:32;27.20;;;20.17;;
26337;SDS011;14050;50.950;4.460;2023-06-22T11:20:33;26.17;;;19.67;;
26337;SDS011;14050;50.950;4.460;2023-06-22T11:25:34;30.15;;;20.45;;
26337;SDS011;14050;50.950;4.460;2023-06-22T11:30:35;21.90;;;18.90;;
26337;SDS011;14050;50.950;4.460;2023-06-22T11:35:35;24.20;;;19.27;;
26337;SDS011;14050;50.950;4.460;2023-06-22T11:40:35;24.52;;;18.27;;
26337;SDS011;14050;50.950;4.460;2023-06-22T11:45:35;23.25;;;19.40;;
26337;SDS011;14050;50.950;4.460;2023-06-22T11:50:36;26.13;;;18.60;;
26337;SDS011;14050;50.950;4.460;2023-06-22T11:55:36;23.25;;;18.83;;
26337;SDS011;14050;50.950;4.460;2023-06-22T12:00:37;24.70;;;19.40;;
26337;SDS011;14050;50.950;4.460;2023-06-22T12:05:38;27.77;;;19.55;;
26337;SDS011;14050;50.950;4.460;2023-06-22T12:10:38;28.45;;;21.90;;
26337;SDS011;14050;50.950;4.460;2023-06-22T12:15:39;25.75;;;19.88;;
26337;SDS011;14050;50.950;4.460;2023-06-22T12:20:39;27.08;;;20.45;;
26337;SDS011;14050;50.950;4.460;2023-06-22T12:25:39;25.95;;;21.00;;
26337;SDS011;14050;50.950;4.460;2023-06-22T12:30:39;28.13;;;23.40;;
26337;SDS011;14050;50.950;4.460;2023-06-22T12:35:40;30.33;;;23.75;;
26337;SDS011;14050;50.950;4.460;2023-06-22T12:40:40;29.65;;;24.75;;
26337;SDS011;14050;50.950;4.460;2023-06-22T12:45:40;28.13;;;24.15;;
26337;SDS011;14050;50.950;4.460;2023-06-22T12:50:40;31.23;;;25.00;;
26337;SDS011;14050;50.950;4.460;2023-06-22T12:55:41;32.20;;;27.30;;
26337;SDS011;14050;50.950;4.460;2023-06-22T13:00:41;34.77;;;27.47;;
26337;SDS011;14050;50.950;4.460;2023-06-22T13:05:42;35.15;;;26.65;;
26337;SDS011;14050;50.950;4.460;2023-06-22T13:10:43;35.13;;;26.23;;
26337;SDS011;14050;50.950;4.460;2023-06-22T13:15:43;42.22;;;35.40;;
26337;SDS011;14050;50.950;4.460;2023-06-22T13:20:43;45.57;;;33.47;;
26337;SDS011;14050;50.950;4.460;2023-06-22T13:25:45;44.92;;;31.55;;
26337;SDS011;14050;50.950;4.460;2023-06-22T13:30:46;39.97;;;30.23;;
26337;SDS011;14050;50.950;4.460;2023-06-22T13:35:47;34.83;;;28.75;;
26337;SDS011;14050;50.950;4.460;2023-06-22T13:40:49;38.08;;;28.92;;
26337;SDS011;14050;50.950;4.460;2023-06-22T13:45:50;32.80;;;29.00;;
26337;SDS011;14050;50.950;4.460;2023-06-22T13:50:50;34.90;;;30.30;;
26337;SDS011;14050;50.950;4.460;2023-06-22T13:55:50;34.88;;;26.50;;
26337;SDS011;14050;50.950;4.460;2023-06-22T14:00:51;29.48;;;24.20;;
26337;SDS011;14050;50.950;4.460;2023-06-22T14:05:51;35.45;;;25.00;;
26337;SDS011;14050;50.950;4.460;2023-06-22T14:10:54;38.38;;;28.67;;
26337;SDS011;14050;50.950;4.460;2023-06-22T14:15:54;33.55;;;26.25;;
26337;SDS011;14050;50.950;4.460;2023-06-22T14:20:54;40.20;;;27.40;;
26337;SDS011;14050;50.950;4.460;2023-06-22T14:25:55;38.10;;;27.90;;
26337;SDS011;14050;50.950;4.460;2023-06-22T14:30:55;38.08;;;27.23;;
26337;SDS011;14050;50.950;4.460;2023-06-22T14:35:56;33.15;;;27.58;;
26337;SDS011;14050;50.950;4.460;2023-06-22T14:40:56;40.13;;;29.98;;
26337;SDS011;14050;50.950;4.460;2023-06-22T14:45:57;42.25;;;33.72;;
26337;SDS011;14050;50.950;4.460;2023-06-22T14:50:57;42.60;;;32.03;;
26337;SDS011;14050;50.950;4.460;2023-06-22T14:55:57;45.10;;;33.40;;
26337;SDS011;14050;50.950;4.460;2023-06-22T15:01:00;44.28;;;32.95;;
26337;SDS011;14050;50.950;4.460;2023-06-22T15:06:00;40.70;;;32.58;;
26337;SDS011;14050;50.950;4.460;2023-06-22T15:11:00;49.72;;;34.95;;
26337;SDS011;14050;50.950;4.460;2023-06-22T15:16:02;37.05;;;30.70;;
26337;SDS011;14050;50.950;4.460;2023-06-22T15:21:05;41.80;;;31.85;;
26337;SDS011;14050;50.950;4.460;2023-06-22T15:26:06;42.40;;;32.57;;
26337;SDS011;14050;50.950;4.460;2023-06-22T15:31:06;42.40;;;32.17;;
26337;SDS011;14050;50.950;4.460;2023-06-22T15:36:06;41.13;;;33.70;;
26337;SDS011;14050;50.950;4.460;2023-06-22T15:41:07;41.28;;;32.22;;
26337;SDS011;14050;50.950;4.460;2023-06-22T15:46:07;46.13;;;35.28;;
26337;SDS011;14050;50.950;4.460;2023-06-22T15:51:07;41.40;;;33.47;;
26337;SDS011;14050;50.950;4.460;2023-06-22T15:56:08;48.83;;;35.13;;
26337;SDS011;14050;50.950;4.460;2023-06-22T16:01:09;48.30;;;34.42;;
26337;SDS011;14050;50.950;4.460;2023-06-22T16:06:10;42.83;;;33.70;;
26337;SDS011;14050;50.950;4.460;2023-06-22T16:11:10;44.20;;;35.63;;
26337;SDS011;14050;50.950;4.460;2023-06-22T16:16:10;43.40;;;35.13;;
26337;SDS011;14050;50.950;4.460;2023-06-22T16:21:10;47.38;;;36.30;;
26337;SDS011;14050;50.950;4.460;2023-06-22T16:26:12;46.78;;;35.22;;
26337;SDS011;14050;50.950;4.460;2023-06-22T16:31:12;57.15;;;36.17;;
26337;SDS011;14050;50.950;4.460;2023-06-22T16:36:13;43.75;;;35.97;;
26337;SDS011;14050;50.950;4.460;2023-06-22T16:41:13;51.60;;;37.17;;
26337;SDS011;14050;50.950;4.460;2023-06-22T16:46:15;45.70;;;38.40;;
26337;SDS011;14050;50.950;4.460;2023-06-22T16:51:15;52.77;;;40.37;;
26337;SDS011;14050;50.950;4.460;2023-06-22T16:56:15;52.38;;;40.42;;
26337;SDS011;14050;50.950;4.460;2023-06-22T17:01:15;49.42;;;38.83;;
26337;SDS011;14050;50.950;4.460;2023-06-22T17:06:18;48.67;;;38.70;;
26337;SDS011;14050;50.950;4.460;2023-06-22T17:11:18;46.80;;;36.50;;
26337;SDS011;14050;50.950;4.460;2023-06-22T17:16:18;47.17;;;34.50;;
26337;SDS011;14050;50.950;4.460;2023-06-22T17:21:22;41.75;;;33.35;;
26337;SDS011;14050;50.950;4.460;2023-06-22T17:26:23;46.50;;;34.80;;
26337;SDS011;14050;50.950;4.460;2023-06-22T17:31:23;45.60;;;33.10;;
26337;SDS011;14050;50.950;4.460;2023-06-22T17:36:24;44.55;;;33.75;;
26337;SDS011;14050;50.950;4.460;2023-06-22T17:41:31;41.53;;;32.15;;
26337;SDS011;14050;50.950;4.460;2023-06-22T17:46:35;41.20;;;32.67;;
26337;SDS011;14050;50.950;4.460;2023-06-22T17:51:39;40.13;;;31.73;;
26337;SDS011;14050;50.950;4.460;2023-06-22T17:56:40;43.17;;;32.33;;
26337;SDS011;14050;50.950;4.460;2023-06-22T18:01:40;45.25;;;33.03;;
26337;SDS011;14050;50.950;4.460;2023-06-22T18:06:41;43.17;;;31.63;;
26337;SDS011;14050;50.950;4.460;2023-06-22T18:11:49;40.00;;;30.83;;
26337;SDS011;14050;50.950;4.460;2023-06-22T18:16:50;45.38;;;32.28;;
26337;SDS011;14050;50.950;4.460;2023-06-22T18:21:51;42.08;;;31.40;;
26337;SDS011;14050;50.950;4.460;2023-06-22T18:26:51;41.00;;;30.57;;
26337;SDS011;14050;50.950;4.460;2023-06-22T18:31:53;39.00;;;31.35;;
26337;SDS011;14050;50.950;4.460;2023-06-22T18:36:54;44.37;;;32.80;;
26337;SDS011;14050;50.950;4.460;2023-06-22T18:41:55;43.90;;;31.27;;
26337;SDS011;14050;50.950;4.460;2023-06-22T18:46:58;38.95;;;28.60;;
26337;SDS011;14050;50.950;4.460;2023-06-22T18:57:24;34.25;;;25.63;;
26337;SDS011;14050;50.950;4.460;2023-06-22T19:07:55;32.67;;;24.83;;
26337;SDS011;14050;50.950;4.460;2023-06-22T19:12:52;29.95;;;24.30;;
26337;SDS011;14050;50.950;4.460;2023-06-22T19:17:53;32.25;;;24.00;;
26337;SDS011;14050;50.950;4.460;2023-06-22T19:22:54;33.08;;;24.88;;
26337;SDS011;14050;50.950;4.460;2023-06-22T19:27:56;38.03;;;27.40;;
26337;SDS011;14050;50.950;4.460;2023-06-22T19:32:58;35.03;;;24.95;;
26337;SDS011;14050;50.950;4.460;2023-06-22T19:37:58;36.05;;;24.55;;
26337;SDS011;14050;50.950;4.460;2023-06-22T19:42:59;31.63;;;22.85;;
26337;SDS011;14050;50.950;4.460;2023-06-22T19:47:59;36.47;;;22.90;;
26337;SDS011;14050;50.950;4.460;2023-06-22T19:52:59;35.63;;;25.50;;
26337;SDS011;14050;50.950;4.460;2023-06-22T19:57:59;43.83;;;25.77;;
26337;SDS011;14050;50.950;4.460;2023-06-22T20:03:00;38.25;;;28.10;;
26337;SDS011;14050;50.950;4.460;2023-06-22T20:08:02;48.63;;;35.23;;
26337;SDS011;14050;50.950;4.460;2023-06-22T20:13:03;66.30;;;49.00;;
26337;SDS011;14050;50.950;4.460;2023-06-22T20:18:09;64.95;;;47.63;;
26337;SDS011;14050;50.950;4.460;2023-06-22T20:23:10;96.55;;;61.55;;
26337;SDS011;14050;50.950;4.460;2023-06-22T20:28:11;87.00;;;62.00;;
26337;SDS011;14050;50.950;4.460;2023-06-22T20:33:15;90.43;;;62.75;;
26337;SDS011;14050;50.950;4.460;2023-06-22T20:38:16;103.32;;;64.07;;
26337;SDS011;14050;50.950;4.460;2023-06-22T20:43:16;92.90;;;62.07;;
26337;SDS011;14050;50.950;4.460;2023-06-22T20:48:16;89.75;;;59.10;;
26337;SDS011;14050;50.950;4.460;2023-06-22T20:53:17;103.80;;;62.08;;
26337;SDS011;14050;50.950;4.460;2023-06-22T20:58:17;88.83;;;57.80;;
26337;SDS011;14050;50.950;4.460;2023-06-22T21:03:17;83.63;;;56.17;;
26337;SDS011;14050;50.950;4.460;2023-06-22T21:08:17;89.70;;;53.65;;
26337;SDS011;14050;50.950;4.460;2023-06-22T21:13:18;87.07;;;54.25;;
26337;SDS011;14050;50.950;4.460;2023-06-22T21:18:19;92.22;;;53.38;;
26337;SDS011;14050;50.950;4.460;2023-06-22T21:23:19;71.37;;;48.93;;
26337;SDS011;14050;50.950;4.460;2023-06-22T21:28:20;76.90;;;48.38;;
26337;SDS011;14050;50.950;4.460;2023-06-22T21:33:20;80.13;;;49.40;;
26337;SDS011;14050;50.950;4.460;2023-06-22T21:38:20;76.27;;;49.27;;
26337;SDS011;14050;50.950;4.460;2023-06-22T21:43:21;76.35;;;49.05;;
26337;SDS011;14050;50.950;4.460;2023-06-22T21:48:21;79.30;;;49.50;;
26337;SDS011;14050;50.950;4.460;2023-06-22T21:53:22;76.30;;;49.83;;
26337;SDS011;14050;50.950;4.460;2023-06-22T21:58:22;76.77;;;50.30;;
26337;SDS011;14050;50.950;4.460;2023-06-22T22:03:25;74.88;;;50.17;;
26337;SDS011;14050;50.950;4.460;2023-06-22T22:08:26;82.78;;;49.65;;
26337;SDS011;14050;50.950;4.460;2023-06-22T22:13:26;75.55;;;50.38;;
26337;SDS011;14050;50.950;4.460;2023-06-22T22:18:27;80.07;;;50.65;;
26337;SDS011;14050;50.950;4.460;2023-06-22T22:23:27;86.45;;;50.47;;
26337;SDS011;14050;50.950;4.460;2023-06-22T22:28:28;82.55;;;48.75;;
26337;SDS011;14050;50.950;4.460;2023-06-22T22:33:29;78.63;;;48.00;;
26337;SDS011;14050;50.950;4.460;2023-06-22T22:38:29;75.30;;;47.80;;
26337;SDS011;14050;50.950;4.460;2023-06-22T22:43:29;87.45;;;50.75;;
26337;SDS011;14050;50.950;4.460;2023-06-22T22:48:30;69.10;;;44.80;;
26337;SDS011;14050;50.950;4.460;2023-06-22T22:53:31;67.10;;;42.78;;
26337;SDS011;14050;50.950;4.460;2023-06-22T22:58:31;68.38;;;44.25;;
26337;SDS011;14050;50.950;4.460;2023-06-22T23:03:31;69.00;;;43.22;;
26337;SDS011;14050;50.950;4.460;2023-06-22T23:08:31;64.72;;;43.22;;
26337;SDS011;14050;50.950;4.460;2023-06-22T23:13:32;65.10;;;42.17;;
26337;SDS011;14050;50.950;4.460;2023-06-22T23:18:33;71.45;;;41.67;;
26337;SDS011;14050;50.950;4.460;2023-06-22T23:23:33;67.93;;;40.30;;
26337;SDS011;14050;50.950;4.460;2023-06-22T23:28:34;79.00;;;40.63;;
26337;SDS011;14050;50.950;4.460;2023-06-22T23:33:34;68.15;;;38.67;;
26337;SDS011;14050;50.950;4.460;2023-06-22T23:38:35;63.85;;;38.08;;
26337;SDS011;14050;50.950;4.460;2023-06-22T23:43:35;67.13;;;41.30;;
26337;SDS011;14050;50.950;4.460;2023-06-22T23:48:35;61.80;;;36.53;;
26337;SDS011;14050;50.950;4.460;2023-06-22T23:53:36;61.57;;;36.37;;
26337;SDS011;14050;50.950;4.460;2023-06-22T23:58:36;66.17;;;36.53;;
